sensor_id;sensor_type;location;lat;lon;timestamp;P1;durP1;ratioP1;P2;durP2;ratioP2
26271;SDS011;13997;48.902;12.472;2023-02-28T00:02:07;9.52;;;3.72;;
26271;SDS011;13997;48.902;12.472;2023-02-28T00:04:33;6.97;;;3.63;;
26271;SDS011;13997;48.902;12.472;2023-02-28T00:06:58;6.88;;;4.05;;
26271;SDS011;13997;48.902;12.472;2023-02-28T00:09:24;6.07;;;3.72;;
26271;SDS011;13997;48.902;12.472;2023-02-28T00:11:50;7.15;;;3.83;;
26271;SDS011;13997;48.902;12.472;2023-02-28T00:14:16;6.70;;;3.80;;
26271;SDS011;13997;48.902;12.472;2023-02-28T00:16:41;5.63;;;3.35;;
26271;SDS011;13997;48.902;12.472;2023-02-28T00:19:07;6.50;;;3.50;;
26271;SDS011;13997;48.902;12.472;2023-02-28T00:21:32;6.45;;;3.60;;
26271;SDS011;13997;48.902;12.472;2023-02-28T00:23:58;6.75;;;3.70;;
26271;SDS011;13997;48.902;12.472;2023-02-28T00:26:24;15.80;;;3.58;;
26271;SDS011;13997;48.902;12.472;2023-02-28T00:28:51;9.07;;;3.83;;
26271;SDS011;13997;48.902;12.472;2023-02-28T00:31:17;5.63;;;3.50;;
26271;SDS011;13997;48.902;12.472;2023-02-28T00:33:43;6.65;;;3.60;;
26271;SDS011;13997;48.902;12.472;2023-02-28T00:36:09;8.68;;;3.85;;
26271;SDS011;13997;48.902;12.472;2023-02-28T00:38:36;6.40;;;3.60;;
26271;SDS011;13997;48.902;12.472;2023-02-28T00:41:03;6.65;;;3.90;;
26271;SDS011;13997;48.902;12.472;2023-02-28T00:43:29;9.27;;;4.13;;
26271;SDS011;13997;48.902;12.472;2023-02-28T00:45:56;8.00;;;4.15;;
26271;SDS011;13997;48.902;12.472;2023-02-28T00:48:22;11.93;;;4.05;;
26271;SDS011;13997;48.902;12.472;2023-02-28T00:50:48;6.43;;;3.63;;
26271;SDS011;13997;48.902;12.472;2023-02-28T00:53:14;6.68;;;3.53;;
26271;SDS011;13997;48.902;12.472;2023-02-28T00:55:40;7.15;;;4.00;;
26271;SDS011;13997;48.902;12.472;2023-02-28T00:58:06;7.45;;;4.00;;
26271;SDS011;13997;48.902;12.472;2023-02-28T01:00:31;6.55;;;3.75;;
26271;SDS011;13997;48.902;12.472;2023-02-28T01:02:57;7.20;;;3.47;;
26271;SDS011;13997;48.902;12.472;2023-02-28T01:05:22;9.40;;;4.68;;
26271;SDS011;13997;48.902;12.472;2023-02-28T01:07:48;9.75;;;4.20;;
26271;SDS011;13997;48.902;12.472;2023-02-28T01:10:14;4.90;;;3.50;;
26271;SDS011;13997;48.902;12.472;2023-02-28T01:12:40;9.18;;;4.35;;
26271;SDS011;13997;48.902;12.472;2023-02-28T01:15:06;9.57;;;4.32;;
26271;SDS011;13997;48.902;12.472;2023-02-28T01:17:31;8.25;;;4.00;;
26271;SDS011;13997;48.902;12.472;2023-02-28T01:19:57;7.57;;;4.38;;
26271;SDS011;13997;48.902;12.472;2023-02-28T01:22:23;13.90;;;4.15;;
26271;SDS011;13997;48.902;12.472;2023-02-28T01:24:48;6.60;;;4.20;;
26271;SDS011;13997;48.902;12.472;2023-02-28T01:27:14;7.65;;;3.85;;
26271;SDS011;13997;48.902;12.472;2023-02-28T01:29:40;10.35;;;4.53;;
26271;SDS011;13997;48.902;12.472;2023-02-28T01:32:05;8.07;;;4.20;;
26271;SDS011;13997;48.902;12.472;2023-02-28T01:34:31;7.40;;;4.43;;
26271;SDS011;13997;48.902;12.472;2023-02-28T01:36:56;8.88;;;4.45;;
26271;SDS011;13997;48.902;12.472;2023-02-28T01:39:23;7.97;;;4.40;;
26271;SDS011;13997;48.902;12.472;2023-02-28T01:41:49;7.45;;;4.40;;
26271;SDS011;13997;48.902;12.472;2023-02-28T01:47:18;7.60;;;4.15;;
26271;SDS011;13997;48.902;12.472;2023-02-28T01:49:44;9.88;;;4.93;;
26271;SDS011;13997;48.902;12.472;2023-02-28T01:52:10;8.90;;;5.10;;
26271;SDS011;13997;48.902;12.472;2023-02-28T01:54:39;9.80;;;4.90;;
26271;SDS011;13997;48.902;12.472;2023-02-28T01:57:16;10.43;;;4.80;;
26271;SDS011;13997;48.902;12.472;2023-02-28T01:59:48;8.32;;;4.53;;
26271;SDS011;13997;48.902;12.472;2023-02-28T02:04:56;8.73;;;4.60;;
26271;SDS011;13997;48.902;12.472;2023-02-28T02:07:29;9.48;;;5.35;;
26271;SDS011;13997;48.902;12.472;2023-02-28T02:10:01;11.25;;;4.75;;
26271;SDS011;13997;48.902;12.472;2023-02-28T02:18:26;9.25;;;4.60;;
26271;SDS011;13997;48.902;12.472;2023-02-28T02:34:45;9.23;;;5.40;;
26271;SDS011;13997;48.902;12.472;2023-02-28T02:42:31;12.20;;;5.55;;
26271;SDS011;13997;48.902;12.472;2023-02-28T02:45:11;12.10;;;5.65;;
26271;SDS011;13997;48.902;12.472;2023-02-28T02:47:41;10.60;;;5.60;;
26271;SDS011;13997;48.902;12.472;2023-02-28T02:50:11;10.75;;;5.97;;
26271;SDS011;13997;48.902;12.472;2023-02-28T02:52:45;11.07;;;5.38;;
26271;SDS011;13997;48.902;12.472;2023-02-28T02:55:15;14.45;;;6.10;;
26271;SDS011;13997;48.902;12.472;2023-02-28T02:57:47;12.95;;;5.38;;
26271;SDS011;13997;48.902;12.472;2023-02-28T03:00:20;10.10;;;5.55;;
26271;SDS011;13997;48.902;12.472;2023-02-28T03:02:51;10.88;;;5.57;;
26271;SDS011;13997;48.902;12.472;2023-02-28T03:05:30;11.40;;;5.90;;
26271;SDS011;13997;48.902;12.472;2023-02-28T03:08:02;10.43;;;6.00;;
26271;SDS011;13997;48.902;12.472;2023-02-28T03:13:00;9.73;;;6.07;;
26271;SDS011;13997;48.902;12.472;2023-02-28T03:18:33;14.45;;;6.60;;
26271;SDS011;13997;48.902;12.472;2023-02-28T03:27:11;10.60;;;6.13;;
26271;SDS011;13997;48.902;12.472;2023-02-28T03:29:50;12.05;;;6.03;;
26271;SDS011;13997;48.902;12.472;2023-02-28T03:32:38;9.60;;;5.70;;
26271;SDS011;13997;48.902;12.472;2023-02-28T03:35:07;10.13;;;6.03;;
26271;SDS011;13997;48.902;12.472;2023-02-28T03:37:38;10.20;;;6.07;;
26271;SDS011;13997;48.902;12.472;2023-02-28T03:42:38;11.35;;;6.65;;
26271;SDS011;13997;48.902;12.472;2023-02-28T03:45:22;10.73;;;5.88;;
26271;SDS011;13997;48.902;12.472;2023-02-28T03:50:23;12.38;;;7.15;;
26271;SDS011;13997;48.902;12.472;2023-02-28T03:53:39;13.65;;;7.18;;
26271;SDS011;13997;48.902;12.472;2023-02-28T03:55:48;12.85;;;6.38;;
26271;SDS011;13997;48.902;12.472;2023-02-28T04:00:56;13.27;;;7.00;;
26271;SDS011;13997;48.902;12.472;2023-02-28T04:03:32;12.43;;;6.95;;
26271;SDS011;13997;48.902;12.472;2023-02-28T04:06:02;15.18;;;6.50;;
26271;SDS011;13997;48.902;12.472;2023-02-28T04:08:28;13.75;;;6.63;;
26271;SDS011;13997;48.902;12.472;2023-02-28T04:10:59;13.68;;;7.00;;
26271;SDS011;13997;48.902;12.472;2023-02-28T04:13:29;16.30;;;7.03;;
26271;SDS011;13997;48.902;12.472;2023-02-28T04:15:54;12.63;;;7.10;;
26271;SDS011;13997;48.902;12.472;2023-02-28T04:18:20;13.70;;;7.07;;
26271;SDS011;13997;48.902;12.472;2023-02-28T04:20:46;15.38;;;7.22;;
26271;SDS011;13997;48.902;12.472;2023-02-28T04:23:11;17.23;;;7.13;;
26271;SDS011;13997;48.902;12.472;2023-02-28T04:25:37;13.85;;;7.05;;
26271;SDS011;13997;48.902;12.472;2023-02-28T04:28:05;12.45;;;7.05;;
26271;SDS011;13997;48.902;12.472;2023-02-28T04:30:31;12.13;;;6.82;;
26271;SDS011;13997;48.902;12.472;2023-02-28T04:32:57;13.82;;;7.95;;
26271;SDS011;13997;48.902;12.472;2023-02-28T04:35:23;11.55;;;6.78;;
26271;SDS011;13997;48.902;12.472;2023-02-28T04:37:49;11.88;;;6.47;;
26271;SDS011;13997;48.902;12.472;2023-02-28T04:40:14;13.68;;;6.88;;
26271;SDS011;13997;48.902;12.472;2023-02-28T04:42:40;13.68;;;7.22;;
26271;SDS011;13997;48.902;12.472;2023-02-28T04:45:06;11.20;;;6.50;;
26271;SDS011;13997;48.902;12.472;2023-02-28T04:47:35;12.73;;;7.13;;
26271;SDS011;13997;48.902;12.472;2023-02-28T04:50:01;15.52;;;7.50;;
26271;SDS011;13997;48.902;12.472;2023-02-28T04:52:27;14.38;;;6.95;;
26271;SDS011;13997;48.902;12.472;2023-02-28T04:54:52;13.00;;;7.22;;
26271;SDS011;13997;48.902;12.472;2023-02-28T04:57:18;13.95;;;7.35;;
26271;SDS011;13997;48.902;12.472;2023-02-28T04:59:43;12.05;;;7.00;;
26271;SDS011;13997;48.902;12.472;2023-02-28T05:02:09;13.00;;;7.20;;
26271;SDS011;13997;48.902;12.472;2023-02-28T05:04:35;16.17;;;7.68;;
26271;SDS011;13997;48.902;12.472;2023-02-28T05:07:01;13.90;;;6.80;;
26271;SDS011;13997;48.902;12.472;2023-02-28T05:09:28;16.58;;;7.32;;
26271;SDS011;13997;48.902;12.472;2023-02-28T05:11:53;16.58;;;8.05;;
26271;SDS011;13997;48.902;12.472;2023-02-28T05:14:19;15.45;;;7.65;;
26271;SDS011;13997;48.902;12.472;2023-02-28T05:16:45;14.02;;;7.25;;
26271;SDS011;13997;48.902;12.472;2023-02-28T05:19:11;15.35;;;7.88;;
26271;SDS011;13997;48.902;12.472;2023-02-28T05:21:40;14.73;;;7.35;;
26271;SDS011;13997;48.902;12.472;2023-02-28T05:24:12;14.40;;;8.00;;
26271;SDS011;13997;48.902;12.472;2023-02-28T05:26:39;15.30;;;8.40;;
26271;SDS011;13997;48.902;12.472;2023-02-28T05:29:06;14.52;;;7.47;;
26271;SDS011;13997;48.902;12.472;2023-02-28T05:31:32;14.35;;;7.85;;
26271;SDS011;13997;48.902;12.472;2023-02-28T05:33:58;14.13;;;7.60;;
26271;SDS011;13997;48.902;12.472;2023-02-28T05:36:24;16.58;;;7.93;;
26271;SDS011;13997;48.902;12.472;2023-02-28T05:38:50;15.48;;;7.90;;
26271;SDS011;13997;48.902;12.472;2023-02-28T05:41:16;13.77;;;7.38;;
26271;SDS011;13997;48.902;12.472;2023-02-28T05:43:44;14.38;;;7.72;;
26271;SDS011;13997;48.902;12.472;2023-02-28T05:46:10;17.25;;;7.93;;
26271;SDS011;13997;48.902;12.472;2023-02-28T05:48:36;13.07;;;7.53;;
26271;SDS011;13997;48.902;12.472;2023-02-28T05:51:03;15.57;;;7.35;;
26271;SDS011;13997;48.902;12.472;2023-02-28T05:53:29;17.85;;;9.75;;
26271;SDS011;13997;48.902;12.472;2023-02-28T05:55:55;13.60;;;7.82;;
26271;SDS011;13997;48.902;12.472;2023-02-28T05:58:21;13.35;;;7.50;;
26271;SDS011;13997;48.902;12.472;2023-02-28T06:00:48;14.20;;;7.93;;
26271;SDS011;13997;48.902;12.472;2023-02-28T06:03:14;19.35;;;8.50;;
26271;SDS011;13997;48.902;12.472;2023-02-28T06:05:39;14.50;;;7.65;;
26271;SDS011;13997;48.902;12.472;2023-02-28T06:08:05;14.93;;;7.63;;
26271;SDS011;13997;48.902;12.472;2023-02-28T06:10:32;15.05;;;7.55;;
26271;SDS011;13997;48.902;12.472;2023-02-28T06:13:02;13.95;;;8.10;;
26271;SDS011;13997;48.902;12.472;2023-02-28T06:15:28;17.10;;;7.80;;
26271;SDS011;13997;48.902;12.472;2023-02-28T06:17:54;15.55;;;7.85;;
26271;SDS011;13997;48.902;12.472;2023-02-28T06:20:23;19.88;;;7.78;;
26271;SDS011;13997;48.902;12.472;2023-02-28T06:22:49;13.20;;;6.78;;
26271;SDS011;13997;48.902;12.472;2023-02-28T06:25:16;13.88;;;7.50;;
26271;SDS011;13997;48.902;12.472;2023-02-28T06:27:42;16.90;;;8.43;;
26271;SDS011;13997;48.902;12.472;2023-02-28T06:30:09;11.95;;;6.90;;
26271;SDS011;13997;48.902;12.472;2023-02-28T06:32:35;13.93;;;7.47;;
26271;SDS011;13997;48.902;12.472;2023-02-28T06:35:01;15.57;;;7.30;;
26271;SDS011;13997;48.902;12.472;2023-02-28T06:37:27;13.45;;;7.65;;
26271;SDS011;13997;48.902;12.472;2023-02-28T06:39:53;13.23;;;7.22;;
26271;SDS011;13997;48.902;12.472;2023-02-28T06:42:20;14.27;;;7.32;;
26271;SDS011;13997;48.902;12.472;2023-02-28T06:44:54;14.60;;;7.90;;
26271;SDS011;13997;48.902;12.472;2023-02-28T06:47:20;15.88;;;8.10;;
26271;SDS011;13997;48.902;12.472;2023-02-28T06:49:47;21.77;;;9.23;;
26271;SDS011;13997;48.902;12.472;2023-02-28T06:52:12;19.98;;;9.55;;
26271;SDS011;13997;48.902;12.472;2023-02-28T06:54:39;15.13;;;7.90;;
26271;SDS011;13997;48.902;12.472;2023-02-28T06:57:04;14.35;;;7.28;;
26271;SDS011;13997;48.902;12.472;2023-02-28T06:59:30;15.05;;;7.00;;
26271;SDS011;13997;48.902;12.472;2023-02-28T07:01:56;12.00;;;6.43;;
26271;SDS011;13997;48.902;12.472;2023-02-28T07:04:24;14.25;;;6.60;;
26271;SDS011;13997;48.902;12.472;2023-02-28T07:06:50;11.43;;;6.32;;
26271;SDS011;13997;48.902;12.472;2023-02-28T07:09:16;12.77;;;6.28;;
26271;SDS011;13997;48.902;12.472;2023-02-28T07:11:41;10.80;;;5.82;;
26271;SDS011;13997;48.902;12.472;2023-02-28T07:14:08;18.20;;;6.88;;
26271;SDS011;13997;48.902;12.472;2023-02-28T07:16:34;12.40;;;5.90;;
26271;SDS011;13997;48.902;12.472;2023-02-28T07:19:00;11.13;;;5.88;;
26271;SDS011;13997;48.902;12.472;2023-02-28T07:21:26;10.88;;;6.35;;
26271;SDS011;13997;48.902;12.472;2023-02-28T07:23:51;12.88;;;6.65;;
26271;SDS011;13997;48.902;12.472;2023-02-28T07:26:18;11.85;;;6.00;;
26271;SDS011;13997;48.902;12.472;2023-02-28T07:28:45;12.90;;;6.97;;
26271;SDS011;13997;48.902;12.472;2023-02-28T07:31:13;10.43;;;5.30;;
26271;SDS011;13997;48.902;12.472;2023-02-28T07:33:39;11.57;;;5.93;;
26271;SDS011;13997;48.902;12.472;2023-02-28T07:36:06;12.57;;;5.90;;
26271;SDS011;13997;48.902;12.472;2023-02-28T07:38:38;14.95;;;6.65;;
26271;SDS011;13997;48.902;12.472;2023-02-28T07:41:04;14.35;;;6.32;;
26271;SDS011;13997;48.902;12.472;2023-02-28T07:43:30;10.38;;;6.15;;
26271;SDS011;13997;48.902;12.472;2023-02-28T07:46:00;11.82;;;6.43;;
26271;SDS011;13997;48.902;12.472;2023-02-28T07:48:30;11.00;;;6.60;;
26271;SDS011;13997;48.902;12.472;2023-02-28T07:50:57;12.30;;;5.70;;
26271;SDS011;13997;48.902;12.472;2023-02-28T07:53:22;15.15;;;6.85;;
26271;SDS011;13997;48.902;12.472;2023-02-28T07:55:48;16.35;;;7.15;;
26271;SDS011;13997;48.902;12.472;2023-02-28T07:58:14;15.88;;;7.43;;
26271;SDS011;13997;48.902;12.472;2023-02-28T08:00:40;13.95;;;6.88;;
26271;SDS011;13997;48.902;12.472;2023-02-28T08:03:07;18.45;;;7.53;;
26271;SDS011;13997;48.902;12.472;2023-02-28T08:05:39;15.73;;;7.45;;
26271;SDS011;13997;48.902;12.472;2023-02-28T08:08:05;14.40;;;7.43;;
26271;SDS011;13997;48.902;12.472;2023-02-28T08:10:32;13.80;;;6.53;;
26271;SDS011;13997;48.902;12.472;2023-02-28T08:12:58;12.35;;;6.60;;
26271;SDS011;13997;48.902;12.472;2023-02-28T08:15:23;10.50;;;5.80;;
26271;SDS011;13997;48.902;12.472;2023-02-28T08:17:49;10.55;;;5.93;;
26271;SDS011;13997;48.902;12.472;2023-02-28T08:20:15;10.82;;;5.70;;
26271;SDS011;13997;48.902;12.472;2023-02-28T08:22:40;9.02;;;5.47;;
26271;SDS011;13997;48.902;12.472;2023-02-28T08:25:07;10.73;;;6.82;;
26271;SDS011;13997;48.902;12.472;2023-02-28T08:27:33;13.43;;;6.35;;
26271;SDS011;13997;48.902;12.472;2023-02-28T08:29:59;14.00;;;7.50;;
26271;SDS011;13997;48.902;12.472;2023-02-28T08:32:25;15.38;;;7.15;;
26271;SDS011;13997;48.902;12.472;2023-02-28T08:34:50;13.18;;;6.40;;
26271;SDS011;13997;48.902;12.472;2023-02-28T08:37:16;11.90;;;6.38;;
26271;SDS011;13997;48.902;12.472;2023-02-28T08:39:42;12.60;;;6.00;;
26271;SDS011;13997;48.902;12.472;2023-02-28T08:42:07;12.60;;;6.15;;
26271;SDS011;13997;48.902;12.472;2023-02-28T08:44:33;13.65;;;6.93;;
26271;SDS011;13997;48.902;12.472;2023-02-28T08:47:00;8.60;;;5.68;;
26271;SDS011;13997;48.902;12.472;2023-02-28T08:49:25;12.77;;;7.00;;
26271;SDS011;13997;48.902;12.472;2023-02-28T08:51:51;17.15;;;6.90;;
26271;SDS011;13997;48.902;12.472;2023-02-28T08:54:17;15.98;;;7.03;;
26271;SDS011;13997;48.902;12.472;2023-02-28T08:56:44;11.77;;;6.35;;
26271;SDS011;13997;48.902;12.472;2023-02-28T08:59:12;11.98;;;6.18;;
26271;SDS011;13997;48.902;12.472;2023-02-28T09:01:38;12.00;;;7.32;;
26271;SDS011;13997;48.902;12.472;2023-02-28T09:04:09;11.00;;;6.13;;
26271;SDS011;13997;48.902;12.472;2023-02-28T09:06:37;11.35;;;6.00;;
26271;SDS011;13997;48.902;12.472;2023-02-28T09:09:03;10.55;;;5.80;;
26271;SDS011;13997;48.902;12.472;2023-02-28T09:11:34;10.13;;;5.50;;
26271;SDS011;13997;48.902;12.472;2023-02-28T09:14:00;11.27;;;5.45;;
26271;SDS011;13997;48.902;12.472;2023-02-28T09:16:28;11.10;;;6.00;;
26271;SDS011;13997;48.902;12.472;2023-02-28T09:18:55;11.90;;;6.47;;
26271;SDS011;13997;48.902;12.472;2023-02-28T09:21:21;10.70;;;6.47;;
26271;SDS011;13997;48.902;12.472;2023-02-28T09:23:47;16.58;;;7.70;;
26271;SDS011;13997;48.902;12.472;2023-02-28T09:26:15;13.75;;;6.75;;
26271;SDS011;13997;48.902;12.472;2023-02-28T09:28:47;12.93;;;6.78;;
26271;SDS011;13997;48.902;12.472;2023-02-28T09:31:13;10.45;;;6.07;;
26271;SDS011;13997;48.902;12.472;2023-02-28T09:33:41;9.60;;;5.90;;
26271;SDS011;13997;48.902;12.472;2023-02-28T09:36:07;11.65;;;6.25;;
26271;SDS011;13997;48.902;12.472;2023-02-28T09:38:33;10.75;;;5.97;;
26271;SDS011;13997;48.902;12.472;2023-02-28T09:41:01;10.15;;;5.43;;
26271;SDS011;13997;48.902;12.472;2023-02-28T09:43:30;11.05;;;6.93;;
26271;SDS011;13997;48.902;12.472;2023-02-28T09:46:07;12.57;;;6.22;;
26271;SDS011;13997;48.902;12.472;2023-02-28T09:48:53;12.93;;;6.53;;
26271;SDS011;13997;48.902;12.472;2023-02-28T09:51:28;14.98;;;6.63;;
26271;SDS011;13997;48.902;12.472;2023-02-28T09:54:02;11.55;;;6.50;;
26271;SDS011;13997;48.902;12.472;2023-02-28T09:56:39;11.90;;;6.22;;
26271;SDS011;13997;48.902;12.472;2023-02-28T09:59:11;14.60;;;6.40;;
26271;SDS011;13997;48.902;12.472;2023-02-28T10:02:19;9.63;;;5.90;;
26271;SDS011;13997;48.902;12.472;2023-02-28T10:05:09;19.10;;;6.90;;
26271;SDS011;13997;48.902;12.472;2023-02-28T10:13:13;12.68;;;5.85;;
26271;SDS011;13997;48.902;12.472;2023-02-28T10:16:00;11.40;;;5.72;;
26271;SDS011;13997;48.902;12.472;2023-02-28T10:18:34;9.93;;;6.45;;
26271;SDS011;13997;48.902;12.472;2023-02-28T10:21:59;16.77;;;7.20;;
26271;SDS011;13997;48.902;12.472;2023-02-28T10:24:23;15.93;;;6.55;;
26271;SDS011;13997;48.902;12.472;2023-02-28T10:26:56;11.57;;;6.28;;
26271;SDS011;13997;48.902;12.472;2023-02-28T10:29:26;11.65;;;6.65;;
26271;SDS011;13997;48.902;12.472;2023-02-28T10:31:54;12.23;;;6.47;;
26271;SDS011;13997;48.902;12.472;2023-02-28T10:34:21;11.48;;;6.90;;
26271;SDS011;13997;48.902;12.472;2023-02-28T10:36:49;16.10;;;6.75;;
26271;SDS011;13997;48.902;12.472;2023-02-28T10:42:02;12.32;;;6.90;;
26271;SDS011;13997;48.902;12.472;2023-02-28T10:44:29;13.05;;;6.50;;
26271;SDS011;13997;48.902;12.472;2023-02-28T10:46:54;11.55;;;6.78;;
26271;SDS011;13997;48.902;12.472;2023-02-28T10:49:28;12.02;;;6.82;;
26271;SDS011;13997;48.902;12.472;2023-02-28T10:51:55;14.68;;;6.60;;
26271;SDS011;13997;48.902;12.472;2023-02-28T10:54:36;10.90;;;6.55;;
26271;SDS011;13997;48.902;12.472;2023-02-28T10:57:36;8.90;;;5.88;;
26271;SDS011;13997;48.902;12.472;2023-02-28T11:02:44;12.15;;;6.03;;
26271;SDS011;13997;48.902;12.472;2023-02-28T11:10:29;8.50;;;5.40;;
26271;SDS011;13997;48.902;12.472;2023-02-28T11:12:57;11.70;;;5.53;;
26271;SDS011;13997;48.902;12.472;2023-02-28T11:15:24;12.55;;;6.45;;
26271;SDS011;13997;48.902;12.472;2023-02-28T11:18:02;14.32;;;6.30;;
26271;SDS011;13997;48.902;12.472;2023-02-28T11:20:38;10.13;;;6.00;;
26271;SDS011;13997;48.902;12.472;2023-02-28T11:23:05;10.68;;;5.78;;
26271;SDS011;13997;48.902;12.472;2023-02-28T11:25:38;9.27;;;5.53;;
26271;SDS011;13997;48.902;12.472;2023-02-28T11:28:06;11.57;;;5.43;;
26271;SDS011;13997;48.902;12.472;2023-02-28T11:33:43;9.00;;;5.38;;
26271;SDS011;13997;48.902;12.472;2023-02-28T11:36:12;11.13;;;5.63;;
26271;SDS011;13997;48.902;12.472;2023-02-28T11:38:41;11.77;;;5.78;;
26271;SDS011;13997;48.902;12.472;2023-02-28T11:44:23;10.02;;;6.55;;
26271;SDS011;13997;48.902;12.472;2023-02-28T11:52:52;12.23;;;6.18;;
26271;SDS011;13997;48.902;12.472;2023-02-28T11:58:04;10.05;;;5.57;;
26271;SDS011;13997;48.902;12.472;2023-02-28T12:03:16;12.90;;;5.93;;
26271;SDS011;13997;48.902;12.472;2023-02-28T12:08:49;10.90;;;5.68;;
26271;SDS011;13997;48.902;12.472;2023-02-28T12:19:37;9.60;;;5.63;;
26271;SDS011;13997;48.902;12.472;2023-02-28T12:25:18;9.40;;;5.32;;
26271;SDS011;13997;48.902;12.472;2023-02-28T12:27:55;12.15;;;6.30;;
26271;SDS011;13997;48.902;12.472;2023-02-28T12:30:27;11.73;;;6.05;;
26271;SDS011;13997;48.902;12.472;2023-02-28T12:35:41;13.98;;;7.97;;
26271;SDS011;13997;48.902;12.472;2023-02-28T12:38:15;13.50;;;7.13;;
26271;SDS011;13997;48.902;12.472;2023-02-28T12:41:02;12.18;;;7.55;;
26271;SDS011;13997;48.902;12.472;2023-02-28T12:43:34;13.93;;;6.43;;
26271;SDS011;13997;48.902;12.472;2023-02-28T12:48:39;16.02;;;7.35;;
26271;SDS011;13997;48.902;12.472;2023-02-28T12:51:11;14.75;;;7.18;;
26271;SDS011;13997;48.902;12.472;2023-02-28T12:58:58;13.07;;;6.70;;
26271;SDS011;13997;48.902;12.472;2023-02-28T13:01:43;11.20;;;6.13;;
26271;SDS011;13997;48.902;12.472;2023-02-28T13:04:42;11.13;;;6.32;;
26271;SDS011;13997;48.902;12.472;2023-02-28T13:07:29;12.48;;;7.03;;
26271;SDS011;13997;48.902;12.472;2023-02-28T13:10:16;13.73;;;7.38;;
26271;SDS011;13997;48.902;12.472;2023-02-28T13:12:50;12.88;;;7.20;;
26271;SDS011;13997;48.902;12.472;2023-02-28T13:17:53;11.73;;;6.53;;
26271;SDS011;13997;48.902;12.472;2023-02-28T13:20:27;13.48;;;7.20;;
26271;SDS011;13997;48.902;12.472;2023-02-28T13:22:57;15.85;;;8.15;;
26271;SDS011;13997;48.902;12.472;2023-02-28T13:27:58;15.02;;;7.35;;
26271;SDS011;13997;48.902;12.472;2023-02-28T13:38:43;13.45;;;7.38;;
26271;SDS011;13997;48.902;12.472;2023-02-28T13:44:05;12.65;;;6.60;;
26271;SDS011;13997;48.902;12.472;2023-02-28T13:46:32;14.30;;;7.28;;
26271;SDS011;13997;48.902;12.472;2023-02-28T13:51:45;14.23;;;7.18;;
26271;SDS011;13997;48.902;12.472;2023-02-28T14:05:26;14.65;;;7.45;;
26271;SDS011;13997;48.902;12.472;2023-02-28T14:07:56;17.08;;;9.05;;
26271;SDS011;13997;48.902;12.472;2023-02-28T14:10:31;18.30;;;9.25;;
26271;SDS011;13997;48.902;12.472;2023-02-28T14:13:01;20.10;;;10.73;;
26271;SDS011;13997;48.902;12.472;2023-02-28T14:15:40;15.45;;;9.00;;
26271;SDS011;13997;48.902;12.472;2023-02-28T14:18:22;16.95;;;8.20;;
26271;SDS011;13997;48.902;12.472;2023-02-28T14:20:57;18.90;;;8.35;;
26271;SDS011;13997;48.902;12.472;2023-02-28T14:28:48;14.75;;;8.27;;
26271;SDS011;13997;48.902;12.472;2023-02-28T14:31:29;15.85;;;8.02;;
26271;SDS011;13997;48.902;12.472;2023-02-28T14:36:47;14.93;;;8.23;;
26271;SDS011;13997;48.902;12.472;2023-02-28T14:39:15;14.25;;;8.45;;
26271;SDS011;13997;48.902;12.472;2023-02-28T14:41:44;16.67;;;7.80;;
26271;SDS011;13997;48.902;12.472;2023-02-28T14:46:41;15.95;;;8.50;;
26271;SDS011;13997;48.902;12.472;2023-02-28T14:49:18;16.80;;;8.98;;
26271;SDS011;13997;48.902;12.472;2023-02-28T14:52:01;16.35;;;8.50;;
26271;SDS011;13997;48.902;12.472;2023-02-28T14:54:45;20.15;;;9.40;;
26271;SDS011;13997;48.902;12.472;2023-02-28T14:57:23;17.90;;;9.25;;
26271;SDS011;13997;48.902;12.472;2023-02-28T14:59:58;17.17;;;8.82;;
26271;SDS011;13997;48.902;12.472;2023-02-28T15:02:24;18.90;;;8.77;;
26271;SDS011;13997;48.902;12.472;2023-02-28T15:04:58;17.25;;;9.80;;
26271;SDS011;13997;48.902;12.472;2023-02-28T15:07:27;19.35;;;10.18;;
26271;SDS011;13997;48.902;12.472;2023-02-28T15:12:34;18.65;;;9.27;;
26271;SDS011;13997;48.902;12.472;2023-02-28T15:15:00;16.45;;;8.90;;
26271;SDS011;13997;48.902;12.472;2023-02-28T15:17:26;19.30;;;9.88;;
26271;SDS011;13997;48.902;12.472;2023-02-28T15:19:52;20.42;;;10.32;;
26271;SDS011;13997;48.902;12.472;2023-02-28T15:22:22;20.75;;;9.15;;
26271;SDS011;13997;48.902;12.472;2023-02-28T15:24:55;17.80;;;9.18;;
26271;SDS011;13997;48.902;12.472;2023-02-28T15:27:22;23.92;;;10.88;;
26271;SDS011;13997;48.902;12.472;2023-02-28T15:29:53;20.45;;;9.80;;
26271;SDS011;13997;48.902;12.472;2023-02-28T15:32:24;19.23;;;9.30;;
26271;SDS011;13997;48.902;12.472;2023-02-28T15:34:54;23.48;;;9.82;;
26271;SDS011;13997;48.902;12.472;2023-02-28T15:39:56;16.40;;;8.57;;
26271;SDS011;13997;48.902;12.472;2023-02-28T15:42:30;17.98;;;9.65;;
26271;SDS011;13997;48.902;12.472;2023-02-28T15:44:56;17.15;;;9.45;;
26271;SDS011;13997;48.902;12.472;2023-02-28T15:47:25;21.40;;;9.80;;
26271;SDS011;13997;48.902;12.472;2023-02-28T15:49:54;20.83;;;9.90;;
26271;SDS011;13997;48.902;12.472;2023-02-28T15:54:57;21.23;;;11.07;;
26271;SDS011;13997;48.902;12.472;2023-02-28T15:57:24;19.40;;;9.75;;
26271;SDS011;13997;48.902;12.472;2023-02-28T15:59:54;18.27;;;10.60;;
26271;SDS011;13997;48.902;12.472;2023-02-28T16:02:34;18.48;;;10.48;;
26271;SDS011;13997;48.902;12.472;2023-02-28T16:07:30;19.55;;;10.52;;
26271;SDS011;13997;48.902;12.472;2023-02-28T16:09:56;20.38;;;11.10;;
26271;SDS011;13997;48.902;12.472;2023-02-28T16:12:25;20.95;;;11.40;;
26271;SDS011;13997;48.902;12.472;2023-02-28T16:14:53;22.55;;;10.98;;
26271;SDS011;13997;48.902;12.472;2023-02-28T16:17:21;24.42;;;11.20;;
26271;SDS011;13997;48.902;12.472;2023-02-28T16:19:49;24.90;;;11.60;;
26271;SDS011;13997;48.902;12.472;2023-02-28T16:22:15;20.42;;;10.77;;
26271;SDS011;13997;48.902;12.472;2023-02-28T16:24:41;20.70;;;11.32;;
26271;SDS011;13997;48.902;12.472;2023-02-28T16:27:06;25.45;;;12.70;;
26271;SDS011;13997;48.902;12.472;2023-02-28T16:29:55;20.67;;;10.98;;
26271;SDS011;13997;48.902;12.472;2023-02-28T16:32:21;21.23;;;11.00;;
26271;SDS011;13997;48.902;12.472;2023-02-28T16:34:46;21.38;;;11.13;;
26271;SDS011;13997;48.902;12.472;2023-02-28T16:37:13;25.15;;;13.40;;
26271;SDS011;13997;48.902;12.472;2023-02-28T16:39:41;21.15;;;12.35;;
26271;SDS011;13997;48.902;12.472;2023-02-28T16:42:10;26.40;;;12.70;;
26271;SDS011;13997;48.902;12.472;2023-02-28T16:44:48;25.75;;;13.27;;
26271;SDS011;13997;48.902;12.472;2023-02-28T16:47:14;25.52;;;13.05;;
26271;SDS011;13997;48.902;12.472;2023-02-28T16:49:39;26.05;;;12.82;;
26271;SDS011;13997;48.902;12.472;2023-02-28T16:52:08;25.80;;;13.77;;
26271;SDS011;13997;48.902;12.472;2023-02-28T16:54:34;25.65;;;13.25;;
26271;SDS011;13997;48.902;12.472;2023-02-28T16:57:00;24.50;;;12.70;;
26271;SDS011;13997;48.902;12.472;2023-02-28T16:59:27;22.58;;;12.38;;
26271;SDS011;13997;48.902;12.472;2023-02-28T17:01:54;20.92;;;12.07;;
26271;SDS011;13997;48.902;12.472;2023-02-28T17:04:21;29.05;;;15.80;;
26271;SDS011;13997;48.902;12.472;2023-02-28T17:06:47;24.55;;;12.45;;
26271;SDS011;13997;48.902;12.472;2023-02-28T17:09:17;19.23;;;11.63;;
26271;SDS011;13997;48.902;12.472;2023-02-28T17:11:45;24.67;;;12.82;;
26271;SDS011;13997;48.902;12.472;2023-02-28T17:14:11;23.38;;;13.20;;
26271;SDS011;13997;48.902;12.472;2023-02-28T17:16:37;33.67;;;17.40;;